createdAt,value
2023-03-06T00:00:45.069Z,1.56
2023-03-06T00:03:11.987Z,1.66
2023-03-06T00:05:39.061Z,1.73
2023-03-06T00:08:05.861Z,1.48
2023-03-06T00:10:33.362Z,1.64
2023-03-06T00:13:03.419Z,1.67
2023-03-06T00:15:30.142Z,1.57
2023-03-06T00:20:40.952Z,1.36
2023-03-06T00:23:08.962Z,1.72
2023-03-06T00:25:38.837Z,1.50
2023-03-06T00:28:06.414Z,1.29
2023-03-06T00:30:33.166Z,1.49
2023-03-06T00:32:59.645Z,1.62
2023-03-06T00:35:26.088Z,1.36
2023-03-06T00:37:52.555Z,1.47
2023-03-06T00:40:21.535Z,1.14
2023-03-06T00:42:48.608Z,1.39
2023-03-06T00:45:15.083Z,1.37
2023-03-06T00:47:42.129Z,1.63
2023-03-06T00:50:10.094Z,1.43
2023-03-06T00:52:36.876Z,1.38
2023-03-06T00:55:12.493Z,1.57
2023-03-06T00:57:38.916Z,1.35
2023-03-06T01:00:09.278Z,1.45
2023-03-06T01:02:35.837Z,1.31
2023-03-06T01:05:02.714Z,1.71
2023-03-06T01:07:29.879Z,1.43
2023-03-06T01:09:56.307Z,1.62
2023-03-06T01:12:23.558Z,1.63
2023-03-06T01:14:50.198Z,1.45
2023-03-06T01:17:16.729Z,1.63
2023-03-06T01:19:43.229Z,1.70
2023-03-06T01:22:09.704Z,1.74
2023-03-06T01:24:36.212Z,1.60
2023-03-06T01:27:02.669Z,1.43
2023-03-06T01:29:29.330Z,1.53
2023-03-06T01:31:55.755Z,1.72
2023-03-06T01:34:22.253Z,1.46
2023-03-06T01:36:48.737Z,1.54
2023-03-06T01:39:15.358Z,1.39
2023-03-06T01:41:41.709Z,1.79
2023-03-06T01:44:10.789Z,1.60
2023-03-06T01:46:42.802Z,1.82
2023-03-06T01:49:40.546Z,1.51
2023-03-06T01:52:16.535Z,1.55
2023-03-06T01:55:07.348Z,1.62
2023-03-06T01:57:37.760Z,1.49
2023-03-06T02:00:10.297Z,1.49
2023-03-06T02:02:37.309Z,1.44
2023-03-06T02:05:05.603Z,1.72
2023-03-06T02:07:32.821Z,1.58
2023-03-06T02:09:59.427Z,1.56
2023-03-06T02:12:26.238Z,1.80
2023-03-06T02:15:03.533Z,1.41
2023-03-06T02:17:30.399Z,1.19
2023-03-06T02:20:16.195Z,1.63
2023-03-06T02:23:05.352Z,1.80
2023-03-06T02:25:39.802Z,1.85
2023-03-06T02:28:09.128Z,1.74
2023-03-06T02:30:36.693Z,1.71
2023-03-06T02:33:04.278Z,1.80
2023-03-06T02:35:33.678Z,1.80
2023-03-06T02:38:06.437Z,1.74
2023-03-06T02:40:42.906Z,1.74
2023-03-06T02:43:12.513Z,1.45
2023-03-06T02:45:45.187Z,1.58
2023-03-06T02:48:13.929Z,1.60
2023-03-06T02:50:41.912Z,1.62
2023-03-06T02:53:10.216Z,1.61
2023-03-06T02:55:37.089Z,1.60
2023-03-06T02:58:03.880Z,1.70
2023-03-06T03:00:40.206Z,1.40
2023-03-06T03:03:07.706Z,1.43
2023-03-06T03:05:34.207Z,1.64
2023-03-06T03:08:00.863Z,1.46
2023-03-06T03:10:27.336Z,1.81
2023-03-06T03:12:53.878Z,1.65
2023-03-06T03:15:20.474Z,1.77
2023-03-06T03:17:47.261Z,1.83
2023-03-06T03:20:17.670Z,1.88
2023-03-06T03:22:48.501Z,1.86
2023-03-06T03:25:15.025Z,1.47
2023-03-06T03:27:41.516Z,1.55
2023-03-06T03:30:09.459Z,1.76
2023-03-06T03:32:36.173Z,1.77
2023-03-06T03:35:03.401Z,1.56
2023-03-06T03:37:29.942Z,1.78
2023-03-06T03:39:56.617Z,1.66
2023-03-06T03:42:23.291Z,1.71
2023-03-06T03:44:49.746Z,1.78
2023-03-06T03:47:16.272Z,1.82
2023-03-06T03:49:44.446Z,1.67
2023-03-06T03:52:10.961Z,1.49
2023-03-06T03:54:37.415Z,1.53
2023-03-06T03:57:03.847Z,1.55
2023-03-06T03:59:30.329Z,1.40
2023-03-06T04:01:57.204Z,1.22
2023-03-06T04:04:24.536Z,1.46
2023-03-06T04:06:51.259Z,1.15
2023-03-06T04:09:17.818Z,1.32
2023-03-06T04:11:44.212Z,1.18
2023-03-06T04:14:10.624Z,1.26
2023-03-06T04:16:37.108Z,0.99
2023-03-06T04:19:03.639Z,1.18
2023-03-06T04:21:32.985Z,1.06
2023-03-06T04:23:59.433Z,0.83
2023-03-06T04:26:26.078Z,1.12
2023-03-06T04:28:52.591Z,1.15
2023-03-06T04:31:19.266Z,0.82
2023-03-06T04:33:48.019Z,1.11
2023-03-06T04:36:23.326Z,1.28
2023-03-06T04:38:49.838Z,1.17
2023-03-06T04:41:16.391Z,1.23
2023-03-06T04:43:42.836Z,1.18
2023-03-06T04:46:11.104Z,1.27
2023-03-06T04:48:37.809Z,1.24
2023-03-06T04:51:04.370Z,1.22
2023-03-06T04:53:31.093Z,1.25
2023-03-06T04:55:57.673Z,1.21
2023-03-06T04:58:24.298Z,1.08
2023-03-06T05:00:51.312Z,1.26
2023-03-06T05:03:17.996Z,1.33
2023-03-06T05:05:44.608Z,1.36
2023-03-06T05:08:15.394Z,1.22
2023-03-06T05:10:48.221Z,1.32
2023-03-06T05:13:14.824Z,1.33
2023-03-06T05:15:42.191Z,1.32
2023-03-06T05:18:08.815Z,1.31
2023-03-06T05:20:35.252Z,1.34
2023-03-06T05:23:01.917Z,1.25
2023-03-06T05:25:28.539Z,1.28
2023-03-06T05:27:55.025Z,1.32
2023-03-06T05:30:23.379Z,1.25
2023-03-06T05:32:50.219Z,1.29
2023-03-06T05:35:21.819Z,1.28
2023-03-06T05:37:48.812Z,1.29
2023-03-06T05:40:16.335Z,1.21
2023-03-06T05:42:42.998Z,1.16
2023-03-06T05:45:09.830Z,1.26
2023-03-06T05:47:36.264Z,1.24
2023-03-06T05:50:03.549Z,1.07
2023-03-06T05:52:29.964Z,1.17
2023-03-06T05:54:56.393Z,1.27
2023-03-06T05:57:23.647Z,1.31
2023-03-06T05:59:50.944Z,1.22
2023-03-06T06:02:18.168Z,1.32
2023-03-06T06:04:44.675Z,1.31
2023-03-06T06:07:13.312Z,1.30
2023-03-06T06:09:40.062Z,1.15
2023-03-06T06:12:06.590Z,1.11
2023-03-06T06:14:34.059Z,1.20
2023-03-06T06:17:00.458Z,1.13
2023-03-06T06:19:28.501Z,1.24
2023-03-06T06:21:54.897Z,1.22
2023-03-06T06:24:25.340Z,1.09
2023-03-06T06:26:52.917Z,1.15
2023-03-06T06:29:19.696Z,1.24
2023-03-06T06:31:46.286Z,1.09
2023-03-06T06:34:12.783Z,1.30
2023-03-06T06:36:39.714Z,1.37
2023-03-06T06:39:06.688Z,1.31
2023-03-06T06:41:52.914Z,1.22
2023-03-06T06:44:20.456Z,1.33
2023-03-06T06:47:21.339Z,1.37
2023-03-06T06:49:33.830Z,1.44
2023-03-06T06:52:00.386Z,1.38
2023-03-06T06:54:27.329Z,1.41
2023-03-06T06:56:54.400Z,1.35
2023-03-06T06:59:32.515Z,1.28
2023-03-06T07:08:16.962Z,1.47
2023-03-06T07:10:48.121Z,1.52
2023-03-06T07:13:14.828Z,1.49
2023-03-06T07:15:42.612Z,1.55
2023-03-06T07:18:10.797Z,1.42
2023-03-06T07:20:37.393Z,1.29
2023-03-06T07:23:07.492Z,1.36
2023-03-06T07:25:34.222Z,1.27
2023-03-06T07:28:02.827Z,1.37
2023-03-06T07:30:29.538Z,0.84
2023-03-06T07:33:13.683Z,1.15
2023-03-06T07:39:01.798Z,1.49
2023-03-06T07:41:47.177Z,1.53
2023-03-06T07:47:07.562Z,1.64
2023-03-06T07:49:39.041Z,1.67
2023-03-06T07:52:05.869Z,1.73
2023-03-06T07:54:33.134Z,1.82
2023-03-06T07:57:05.406Z,1.88
2023-03-06T08:06:28.656Z,1.95
2023-03-06T08:08:58.487Z,2.09
2023-03-06T08:11:28.858Z,2.02
2023-03-06T08:13:55.680Z,2.02
2023-03-06T08:16:23.425Z,1.98
2023-03-06T08:18:50.340Z,2.05
2023-03-06T08:21:18.084Z,2.17
2023-03-06T08:23:48.179Z,1.96
2023-03-06T08:26:16.381Z,1.89
2023-03-06T08:28:42.887Z,2.17
2023-03-06T08:31:13.765Z,2.20
2023-03-06T08:33:41.078Z,2.28
2023-03-06T08:36:07.708Z,2.35
2023-03-06T08:39:07.188Z,2.29
2023-03-06T08:41:32.930Z,2.31
2023-03-06T08:43:59.533Z,2.32
2023-03-06T08:46:27.296Z,2.40
2023-03-06T08:48:54.042Z,2.56
2023-03-06T08:58:11.396Z,2.62
2023-03-06T09:00:38.386Z,2.64
2023-03-06T09:03:05.261Z,2.66
2023-03-06T09:05:31.824Z,2.72
2023-03-06T09:07:58.255Z,2.50
2023-03-06T09:10:25.488Z,2.54
2023-03-06T09:12:54.699Z,2.52
2023-03-06T09:15:21.888Z,2.68
2023-03-06T09:17:48.467Z,2.69
2023-03-06T09:20:15.121Z,2.61
2023-03-06T09:22:45.730Z,2.42
2023-03-06T09:25:20.427Z,2.62
2023-03-06T09:27:51.438Z,2.52
2023-03-06T09:30:22.003Z,2.75
2023-03-06T09:32:49.853Z,2.72
2023-03-06T09:35:18.801Z,2.75
2023-03-06T09:37:45.578Z,2.74
2023-03-06T09:40:17.622Z,2.72
2023-03-06T09:42:44.115Z,2.88
2023-03-06T09:45:12.147Z,2.98
2023-03-06T09:47:44.493Z,2.77
2023-03-06T09:50:29.789Z,2.70
2023-03-06T09:53:15.223Z,2.74
2023-03-06T09:55:44.152Z,2.68
2023-03-06T09:58:16.119Z,2.87
2023-03-06T10:00:51.568Z,2.70
2023-03-06T10:03:22.897Z,2.92
2023-03-06T10:06:02.432Z,2.63
2023-03-06T10:08:36.419Z,2.70
2023-03-06T10:11:05.694Z,2.83
2023-03-06T10:13:40.203Z,2.77
2023-03-06T10:16:13.121Z,2.79
2023-03-06T10:18:42.483Z,2.93
2023-03-06T10:21:29.768Z,2.94
2023-03-06T10:24:01.465Z,2.99
2023-03-06T10:26:38.050Z,2.71
2023-03-06T10:29:14.629Z,2.83
2023-03-06T10:31:44.866Z,2.72
2023-03-06T10:34:18.503Z,2.56
2023-03-06T10:36:44.942Z,2.55
2023-03-06T10:39:16.016Z,2.62
2023-03-06T10:41:43.331Z,2.59
2023-03-06T10:44:11.076Z,2.64
2023-03-06T10:46:39.339Z,2.65
2023-03-06T10:49:09.216Z,2.70
2023-03-06T10:51:35.677Z,2.69
2023-03-06T10:54:03.506Z,2.69
2023-03-06T10:56:55.108Z,2.77
2023-03-06T10:59:26.619Z,2.70
2023-03-06T11:01:54.342Z,2.78
2023-03-06T11:04:21.270Z,2.85
2023-03-06T11:06:48.419Z,3.07
2023-03-06T11:09:22.913Z,2.95
2023-03-06T11:11:52.733Z,3.00
2023-03-06T11:14:22.997Z,3.16
2023-03-06T11:16:53.332Z,2.91
2023-03-06T11:19:22.999Z,3.08
2023-03-06T11:21:59.239Z,3.26
2023-03-06T11:24:27.079Z,3.25
2023-03-06T11:26:55.578Z,2.82
2023-03-06T11:29:48.345Z,2.95
2023-03-06T11:32:18.645Z,3.18
2023-03-06T11:34:53.237Z,3.22
2023-03-06T11:37:31.925Z,3.22
2023-03-06T11:40:13.093Z,3.27
2023-03-06T11:42:52.959Z,3.02
2023-03-06T11:45:19.355Z,3.05
2023-03-06T11:48:01.804Z,3.22
2023-03-06T11:50:34.769Z,3.14
2023-03-06T11:53:03.299Z,3.27
2023-03-06T11:55:38.394Z,3.16
2023-03-06T11:58:17.216Z,3.29
2023-03-06T12:00:57.880Z,3.35
2023-03-06T12:03:42.881Z,3.24
2023-03-06T12:06:27.712Z,3.07
2023-03-06T12:09:05.925Z,2.99
2023-03-06T12:11:39.950Z,2.96
2023-03-06T12:14:25.826Z,3.09
2023-03-06T12:17:07.199Z,3.36
2023-03-06T12:19:53.415Z,3.37
2023-03-06T12:22:38.145Z,3.41
2023-03-06T12:25:05.103Z,3.55
2023-03-06T12:27:52.255Z,3.03
2023-03-06T12:30:36.086Z,3.45
2023-03-06T12:33:08.599Z,3.47
2023-03-06T12:35:48.886Z,3.28
2023-03-06T12:38:34.141Z,3.65
2023-03-06T12:41:19.322Z,3.70
2023-03-06T12:43:54.945Z,3.57
2023-03-06T12:46:28.071Z,3.73
2023-03-06T12:49:08.608Z,3.70
2023-03-06T12:51:35.510Z,3.33
2023-03-06T12:54:03.167Z,3.31
2023-03-06T12:56:30.218Z,3.44
2023-03-06T12:58:57.301Z,3.48
2023-03-06T13:01:26.835Z,3.49
2023-03-06T13:04:02.620Z,3.67
2023-03-06T13:06:36.613Z,3.82
2023-03-06T13:09:09.748Z,3.70
2023-03-06T13:11:48.403Z,3.69
2023-03-06T13:14:26.162Z,3.57
2023-03-06T13:16:52.602Z,3.21
2023-03-06T13:19:42.462Z,3.27
2023-03-06T13:22:14.461Z,3.27
2023-03-06T13:24:43.175Z,3.65
2023-03-06T13:27:11.373Z,3.78
2023-03-06T13:29:43.302Z,3.56
2023-03-06T13:32:12.880Z,3.43
2023-03-06T13:34:40.236Z,3.72
2023-03-06T13:37:19.883Z,4.10
2023-03-06T13:39:55.484Z,4.33
2023-03-06T13:42:33.929Z,4.50
2023-03-06T13:45:06.504Z,4.44
2023-03-06T13:50:49.472Z,3.96
2023-03-06T13:53:15.876Z,4.10
2023-03-06T13:55:51.062Z,4.42
2023-03-06T13:58:36.177Z,4.69
2023-03-06T14:01:23.468Z,4.62
2023-03-06T14:04:18.975Z,4.62
2023-03-06T14:06:50.316Z,4.61
2023-03-06T14:09:40.072Z,3.84
2023-03-06T14:12:08.604Z,4.39
2023-03-06T14:14:38.497Z,4.49
2023-03-06T14:17:05.345Z,4.09
2023-03-06T14:19:36.203Z,3.83
2023-03-06T14:22:03.832Z,3.58
2023-03-06T14:24:35.051Z,4.06
2023-03-06T14:27:01.511Z,3.45
2023-03-06T14:29:29.528Z,3.47
2023-03-06T14:31:57.519Z,3.21
2023-03-06T14:34:28.328Z,3.42
2023-03-06T14:36:56.065Z,3.38
2023-03-06T14:39:42.936Z,3.07
2023-03-06T14:42:18.597Z,3.24
2023-03-06T14:44:45.894Z,3.00
2023-03-06T14:47:39.124Z,2.94
2023-03-06T14:50:27.280Z,3.06
2023-03-06T14:58:56.288Z,3.54
2023-03-06T15:01:38.787Z,3.80
2023-03-06T15:04:23.841Z,3.76
2023-03-06T15:06:50.729Z,3.58
2023-03-06T15:09:46.479Z,3.80
2023-03-06T15:12:55.392Z,3.49
2023-03-06T15:15:27.086Z,3.15
2023-03-06T15:23:50.016Z,3.24
2023-03-06T15:26:20.043Z,2.89
2023-03-06T15:28:59.847Z,3.20
2023-03-06T15:31:35.754Z,3.01
2023-03-06T15:34:09.280Z,3.01
2023-03-06T15:36:39.516Z,3.26
2023-03-06T15:39:26.147Z,3.13
2023-03-06T15:42:11.265Z,3.38
2023-03-06T15:44:37.624Z,3.29
2023-03-06T15:47:08.876Z,2.86
2023-03-06T15:49:37.582Z,3.06
2023-03-06T15:52:04.215Z,2.98
2023-03-06T15:54:32.843Z,2.85
2023-03-06T15:56:59.481Z,2.96
2023-03-06T15:59:27.943Z,2.95
2023-03-06T16:01:54.525Z,2.90
2023-03-06T16:04:21.191Z,2.84
2023-03-06T16:06:47.766Z,2.75
2023-03-06T16:09:14.192Z,2.76
2023-03-06T16:11:44.330Z,2.75
2023-03-06T16:14:28.848Z,2.56
2023-03-06T16:16:56.358Z,2.55
2023-03-06T16:26:57.876Z,2.40
2023-03-06T16:29:25.727Z,2.08
2023-03-06T16:31:52.530Z,2.14
2023-03-06T16:34:21.974Z,2.05
2023-03-06T16:37:16.000Z,1.98
2023-03-06T16:39:54.721Z,1.78
2023-03-06T16:42:23.302Z,1.81
2023-03-06T16:44:49.892Z,1.69
2023-03-06T16:47:16.799Z,1.59
2023-03-06T16:49:43.289Z,1.45
2023-03-06T16:52:11.422Z,1.45
2023-03-06T16:54:37.944Z,1.40
2023-03-06T16:57:04.696Z,1.29
2023-03-06T16:59:31.807Z,1.26
2023-03-06T17:01:58.241Z,1.20
2023-03-06T17:04:24.701Z,1.10
2023-03-06T17:06:53.852Z,0.96
2023-03-06T17:09:20.555Z,0.97
2023-03-06T17:11:51.482Z,0.83
2023-03-06T17:14:19.608Z,0.71
2023-03-06T17:16:46.575Z,0.78
2023-03-06T17:19:17.063Z,0.77
2023-03-06T17:21:43.767Z,0.63
2023-03-06T17:24:10.294Z,0.64
2023-03-06T17:26:43.209Z,0.67
2023-03-06T17:29:09.692Z,0.73
2023-03-06T17:31:36.109Z,0.63
2023-03-06T17:34:02.576Z,0.41
2023-03-06T17:36:34.150Z,0.45
2023-03-06T17:39:01.977Z,0.43
2023-03-06T17:41:28.858Z,0.38
2023-03-06T17:43:55.977Z,0.42
2023-03-06T17:46:25.273Z,0.37
2023-03-06T17:48:52.842Z,0.21
2023-03-06T17:51:19.356Z,0.37
2023-03-06T17:54:10.322Z,0.26
2023-03-06T17:56:39.973Z,0.12
2023-03-06T17:59:06.646Z,0.18
2023-03-06T18:01:33.323Z,0.05
2023-03-06T18:03:59.915Z,0.12
2023-03-06T18:06:27.871Z,0.05
2023-03-06T18:08:54.636Z,0.02
2023-03-06T18:11:21.884Z,0.11
2023-03-06T18:13:50.899Z,-0.02
2023-03-06T18:16:18.925Z,-0.04
2023-03-06T18:18:46.210Z,-0.04
2023-03-06T18:21:14.037Z,0.05
2023-03-06T18:23:40.742Z,0.00
2023-03-06T18:26:16.143Z,0.06
2023-03-06T18:28:44.628Z,0.09
2023-03-06T18:31:14.985Z,0.01
2023-03-06T18:33:41.760Z,-0.04
2023-03-06T18:36:08.556Z,0.02
2023-03-06T18:38:45.499Z,0.04
2023-03-06T18:41:14.202Z,-0.01
2023-03-06T18:43:40.833Z,-0.02
2023-03-06T18:46:07.618Z,0.02
2023-03-06T18:48:34.020Z,-0.15
2023-03-06T18:51:04.737Z,-0.21
2023-03-06T18:53:31.104Z,-0.25
2023-03-06T18:55:57.707Z,-0.17
2023-03-06T18:58:24.367Z,-0.20
2023-03-06T19:00:51.186Z,-0.25
2023-03-06T19:03:17.802Z,-0.18
2023-03-06T19:06:01.025Z,-0.29
2023-03-06T19:12:15.276Z,-0.26
2023-03-06T19:14:41.814Z,-0.14
2023-03-06T19:17:14.396Z,-0.20
2023-03-06T19:19:40.961Z,-0.25
2023-03-06T19:22:07.514Z,-0.21
2023-03-06T19:24:36.864Z,-0.24
2023-03-06T19:27:06.383Z,-0.41
2023-03-06T19:29:52.767Z,-0.29
2023-03-06T19:32:26.339Z,-0.28
2023-03-06T19:35:00.500Z,-0.31
2023-03-06T19:37:29.680Z,-0.35
2023-03-06T19:39:57.094Z,-0.36
2023-03-06T19:42:23.703Z,-0.34
2023-03-06T19:44:50.324Z,-0.32
2023-03-06T19:47:17.074Z,-0.36
2023-03-06T19:49:43.699Z,-0.27
2023-03-06T19:52:10.778Z,-0.31
2023-03-06T19:54:37.391Z,-0.28
2023-03-06T19:57:04.149Z,-0.27
2023-03-06T19:59:30.904Z,-0.46
2023-03-06T20:01:57.468Z,-0.54
2023-03-06T20:04:24.377Z,-0.53
2023-03-06T20:06:51.797Z,-0.62
2023-03-06T20:09:21.955Z,-0.47
2023-03-06T20:11:48.625Z,-0.64
2023-03-06T20:14:15.279Z,-0.56
2023-03-06T20:16:41.952Z,-0.48
2023-03-06T20:19:08.886Z,-0.58
2023-03-06T20:21:37.873Z,-0.56
2023-03-06T20:24:05.857Z,-0.57
2023-03-06T20:26:37.119Z,-0.62
2023-03-06T20:46:28.810Z,-0.64
2023-03-06T20:48:56.072Z,-0.68
2023-03-06T20:51:28.837Z,-0.71
2023-03-06T20:53:55.702Z,-0.77
2023-03-06T20:56:23.899Z,-0.81
2023-03-06T20:58:50.719Z,-0.86
2023-03-06T21:01:23.434Z,-0.86
2023-03-06T21:03:50.294Z,-0.75
2023-03-06T21:06:17.177Z,-0.66
2023-03-06T21:08:43.839Z,-0.70
2023-03-06T21:11:10.383Z,-0.70
2023-03-06T21:13:36.924Z,-0.86
2023-03-06T21:16:04.493Z,-0.75
2023-03-06T21:18:31.087Z,-0.67
2023-03-06T21:20:57.488Z,-0.76
2023-03-06T21:23:24.592Z,-0.77
2023-03-06T21:26:02.900Z,-0.74
2023-03-06T21:28:34.736Z,-0.90
2023-03-06T21:31:01.561Z,-0.69
2023-03-06T21:33:30.672Z,-0.75
2023-03-06T21:35:58.985Z,-0.81
2023-03-06T21:38:25.708Z,-0.69
2023-03-06T21:40:53.557Z,-0.71
2023-03-06T21:43:24.110Z,-0.74
2023-03-06T21:51:54.907Z,-0.90
2023-03-06T21:54:25.974Z,-0.91
2023-03-06T21:59:53.772Z,-0.91
2023-03-06T22:02:22.144Z,-0.80
2023-03-06T22:04:50.258Z,-0.81
2023-03-06T22:07:17.003Z,-0.81
2023-03-06T22:09:43.482Z,-0.84
2023-03-06T22:12:09.963Z,-0.94
2023-03-06T22:17:52.733Z,-0.95
2023-03-06T22:20:19.315Z,-0.85
2023-03-06T22:22:45.826Z,-0.89
2023-03-06T22:25:12.723Z,-0.89
2023-03-06T22:27:39.567Z,-0.90
2023-03-06T22:30:12.877Z,-0.91
2023-03-06T22:32:49.608Z,-1.02
2023-03-06T22:35:22.617Z,-0.94
2023-03-06T22:37:49.594Z,-0.91
2023-03-06T22:40:19.080Z,-0.98
2023-03-06T22:42:45.808Z,-0.98
2023-03-06T22:45:12.356Z,-1.06
2023-03-06T22:47:39.421Z,-0.99
2023-03-06T22:50:07.810Z,-1.18
2023-03-06T22:52:34.559Z,-1.12
2023-03-06T22:55:01.339Z,-1.27
2023-03-06T22:57:31.417Z,-1.30
2023-03-06T23:00:01.045Z,-1.23
2023-03-06T23:02:36.993Z,-1.24
2023-03-06T23:05:04.116Z,-1.22
2023-03-06T23:07:32.386Z,-1.24
2023-03-06T23:09:59.436Z,-1.30
2023-03-06T23:12:30.782Z,-1.18
2023-03-06T23:15:00.440Z,-1.21
2023-03-06T23:17:27.564Z,-1.23
2023-03-06T23:19:54.394Z,-1.22
2023-03-06T23:22:21.132Z,-1.36
2023-03-06T23:24:47.980Z,-1.21
2023-03-06T23:27:14.621Z,-1.18
2023-03-06T23:29:41.346Z,-1.16
2023-03-06T23:32:08.536Z,-1.12
2023-03-06T23:34:37.829Z,-1.12
2023-03-06T23:37:04.858Z,-1.19
2023-03-06T23:39:32.306Z,-1.10
2023-03-06T23:41:59.037Z,-1.02
2023-03-06T23:44:25.575Z,-0.89
2023-03-06T23:46:52.646Z,-0.81
2023-03-06T23:49:21.082Z,-0.82
2023-03-06T23:51:51.668Z,-0.80
2023-03-06T23:54:18.966Z,-0.68
2023-03-06T23:56:45.551Z,-0.61
2023-03-06T23:59:12.083Z,-0.53
